Portada
METAR-TAF:

METAR-TAF

Aeropuertos :

Madrid-Getafe, España

Base Aérea de Getafe

latitud: 40-18N, longitud: 003-43W, altitud: 620 m

Observación

El informe se hizo hace 7 horas y 36 minutos, a las 21:00 UTC
Viento 6 kt del oeste
Temperatura 28°C
Humedad 25%
Presión 1011 hPa
Visibilidad 10 km o más
sin nubes por debajo de 1500 m y sin presencia de cumulonimbus.

METAR: LEGT 202100Z 28006KT CAVOK 28/06 Q1011

Hora: 06:36 (04:36 UTC)

Pronóstico

El informe se hizo hace 11 horas y 36 minutos, a las 17:00 UTC
Pronóstico válido del 20 a las 18 UTC al 21 a las 03 UTC
Viento 5 kt con dirección variable
Visibilidad 10 km o más
sin nubes por debajo de 1500 m y sin presencia de cumulonimbus.
Probabilidad 40% :
Temporalmente
del 20 a las 18 UTC al 20 a las 20 UTC
Viento 10 kt del oeste-suroeste

TAF: LEGT 201700Z 2018/2103 VRB05KT CAVOK PROB40 TEMPO 2018/2020 25010KT

Observaciones y pronósticos meteorológicos de más de 4000 aeropuertos (mensajes METAR y TAF).

Los puntos amarillos y rojos representan las estaciones disponibles.

Ponga el ratón en el punto deseado para ver el nombre de la estación.

Haga clic para ver las observaciones y los pronósticos meteorológicos.

Para cambiar el mapa : haga clic en los botones verdes con una cruz de color negro para hacer un zoom, en el botón verde con un guión para alejar o en las flechas verdes para mapas adyacentes.


METAR-TAF: